createdAt,value
2023-10-20T00:01:35.487Z,79.31
2023-10-20T00:06:40.949Z,78.38
2023-10-20T00:11:46.417Z,79.37
2023-10-20T00:16:50.239Z,80.24
2023-10-20T00:21:56.433Z,80.07
2023-10-20T00:27:00.265Z,80.74
2023-10-20T00:32:05.932Z,80.09
2023-10-20T00:37:12.201Z,80.17
2023-10-20T00:42:18.703Z,80.17
2023-10-20T00:47:23.010Z,81.20
2023-10-20T00:52:31.549Z,81.52
2023-10-20T00:57:35.925Z,81.87
2023-10-20T01:02:41.051Z,82.36
2023-10-20T01:07:46.350Z,82.62
2023-10-20T01:12:51.055Z,81.86
2023-10-20T01:17:55.980Z,84.42
2023-10-20T01:23:02.706Z,83.72
2023-10-20T01:28:09.339Z,82.88
2023-10-20T01:33:13.314Z,82.89
2023-10-20T01:38:20.576Z,82.15
2023-10-20T01:43:26.249Z,83.05
2023-10-20T01:48:31.818Z,81.98
2023-10-20T01:53:35.891Z,81.21
2023-10-20T01:58:41.379Z,80.74
2023-10-20T02:03:48.469Z,79.48
2023-10-20T02:08:52.531Z,81.31
2023-10-20T02:13:58.484Z,81.17
2023-10-20T02:19:02.677Z,80.42
2023-10-20T02:24:09.014Z,80.33
2023-10-20T02:29:14.368Z,80.23
2023-10-20T02:34:19.196Z,80.61
2023-10-20T02:39:24.620Z,82.00
2023-10-20T02:44:31.603Z,81.65
2023-10-20T02:49:36.630Z,81.97
2023-10-20T02:54:40.555Z,80.96
2023-10-20T02:59:47.819Z,81.97
2023-10-20T03:04:55.596Z,82.56
2023-10-20T03:09:59.884Z,82.47
2023-10-20T03:15:05.858Z,82.45
2023-10-20T03:20:10.750Z,82.49
2023-10-20T03:25:14.740Z,81.35
2023-10-20T03:30:20.777Z,79.76
2023-10-20T03:35:26.049Z,80.23
2023-10-20T03:40:37.652Z,81.13
2023-10-20T03:45:50.007Z,80.40
2023-10-20T03:50:55.070Z,79.46
2023-10-20T03:56:00.895Z,79.28
2023-10-20T04:01:08.072Z,80.21
2023-10-20T04:06:12.930Z,80.59
2023-10-20T04:11:20.328Z,78.83
2023-10-20T04:16:29.030Z,82.31
2023-10-20T04:21:34.033Z,82.87
2023-10-20T04:26:38.924Z,82.64
2023-10-20T04:32:02.490Z,81.35
2023-10-20T04:37:23.591Z,81.99
2023-10-20T04:43:01.293Z,83.74
2023-10-20T04:48:24.376Z,83.33
2023-10-20T04:53:45.128Z,83.63
2023-10-20T04:58:55.830Z,83.20
2023-10-20T05:04:12.195Z,82.22
2023-10-20T05:09:16.383Z,82.46
2023-10-20T05:14:20.447Z,81.91
2023-10-20T05:19:26.732Z,81.53
2023-10-20T05:24:30.637Z,81.15
2023-10-20T05:29:34.849Z,81.20
2023-10-20T05:34:42.798Z,80.96
2023-10-20T05:39:47.094Z,79.19
2023-10-20T05:45:02.489Z,78.71
2023-10-20T05:50:11.420Z,78.24
2023-10-20T05:55:15.546Z,78.73
2023-10-20T06:00:20.500Z,78.17
2023-10-20T06:05:26.052Z,77.40
2023-10-20T06:10:31.059Z,75.31
2023-10-20T06:15:35.292Z,74.83
2023-10-20T06:20:42.446Z,74.96
2023-10-20T06:25:46.382Z,73.87
2023-10-20T06:30:51.937Z,71.03
2023-10-20T06:36:01.786Z,67.37
2023-10-20T06:41:06.245Z,65.53
2023-10-20T06:46:11.005Z,65.32
2023-10-20T06:51:16.754Z,63.41
2023-10-20T06:56:26.795Z,61.30
2023-10-20T07:01:33.718Z,60.42
2023-10-20T07:06:39.096Z,60.48
2023-10-20T07:11:45.440Z,58.49
2023-10-20T07:16:49.590Z,56.77
2023-10-20T07:21:55.310Z,57.53
2023-10-20T07:27:00.387Z,54.53
2023-10-20T07:32:04.783Z,54.17
2023-10-20T07:37:11.948Z,53.68
2023-10-20T07:42:21.176Z,51.24
2023-10-20T07:47:25.600Z,52.12
2023-10-20T07:52:31.213Z,51.95
2023-10-20T07:57:36.582Z,50.73
2023-10-20T08:02:47.201Z,52.59
2023-10-20T08:07:52.580Z,51.27
2023-10-20T08:12:56.605Z,51.03
2023-10-20T08:18:00.845Z,48.46
2023-10-20T08:23:07.742Z,46.83
2023-10-20T08:28:11.849Z,44.46
2023-10-20T08:33:16.011Z,42.57
2023-10-20T08:38:21.829Z,42.56
2023-10-20T08:43:27.433Z,40.25
2023-10-20T08:48:33.104Z,39.11
2023-10-20T08:53:41.011Z,41.48
2023-10-20T08:58:47.906Z,41.46
2023-10-20T09:03:53.509Z,40.84
2023-10-20T09:09:00.579Z,42.81
2023-10-20T09:14:04.765Z,42.40
2023-10-20T09:19:12.219Z,43.26
2023-10-20T09:24:18.712Z,44.89
2023-10-20T09:29:24.028Z,45.81
2023-10-20T09:34:28.729Z,46.95
2023-10-20T09:39:41.497Z,48.36
2023-10-20T09:44:49.414Z,49.04
2023-10-20T09:49:55.612Z,48.51
2023-10-20T09:55:03.111Z,45.58
2023-10-20T10:00:09.684Z,44.90
2023-10-20T10:05:23.707Z,43.00
2023-10-20T10:10:29.109Z,43.37
2023-10-20T10:15:40.232Z,44.69
2023-10-20T10:20:47.097Z,43.77
2023-10-20T10:25:54.933Z,43.18
2023-10-20T10:30:58.797Z,42.70
2023-10-20T10:36:11.448Z,41.97
2023-10-20T10:41:24.337Z,39.93
2023-10-20T10:46:36.055Z,37.43
2023-10-20T10:51:45.295Z,34.80
2023-10-20T10:56:50.952Z,32.96
2023-10-20T11:01:55.745Z,29.46
2023-10-20T11:07:01.160Z,29.67
2023-10-20T11:12:10.471Z,29.51
2023-10-20T11:17:16.140Z,28.95
2023-10-20T11:22:21.644Z,28.35
2023-10-20T11:27:28.032Z,28.74
2023-10-20T11:32:32.333Z,28.33
2023-10-20T11:37:36.699Z,27.94
2023-10-20T11:42:43.071Z,27.21
2023-10-20T11:47:47.404Z,26.90
2023-10-20T11:52:51.929Z,26.25
2023-10-20T11:57:57.150Z,26.37
2023-10-20T12:03:01.345Z,25.45
2023-10-20T12:08:06.775Z,25.62
2023-10-20T12:13:13.625Z,24.94
2023-10-20T12:18:17.867Z,24.78
2023-10-20T12:23:22.131Z,24.68
2023-10-20T12:28:28.672Z,25.02
2023-10-20T12:33:33.516Z,24.40
2023-10-20T12:38:38.232Z,24.73
2023-10-20T12:43:44.113Z,24.92
2023-10-20T12:48:48.515Z,24.71
2023-10-20T12:53:52.778Z,24.75
2023-10-20T12:58:59.359Z,24.97
2023-10-20T13:04:03.643Z,24.79
2023-10-20T13:09:09.256Z,24.82
2023-10-20T13:14:16.272Z,24.95
2023-10-20T13:19:23.282Z,25.09
2023-10-20T13:24:27.167Z,25.42
2023-10-20T13:29:34.663Z,25.40
2023-10-20T13:34:38.854Z,25.78
2023-10-20T13:39:43.544Z,25.35
2023-10-20T13:44:49.474Z,25.70
2023-10-20T13:49:53.654Z,26.47
2023-10-20T13:54:57.564Z,27.45
2023-10-20T14:00:02.943Z,27.42
2023-10-20T14:05:13.711Z,27.99
2023-10-20T14:10:18.456Z,27.98
2023-10-20T14:15:24.579Z,28.06
2023-10-20T14:20:32.597Z,27.92
2023-10-20T14:25:36.471Z,28.59
2023-10-20T14:30:42.029Z,29.00
2023-10-20T14:35:46.061Z,30.39
2023-10-20T14:40:50.197Z,32.19
2023-10-20T14:45:59.328Z,34.07
2023-10-20T14:51:07.646Z,35.20
2023-10-20T14:56:17.746Z,36.03
2023-10-20T15:01:23.114Z,36.32
2023-10-20T15:06:27.862Z,37.98
2023-10-20T15:11:31.975Z,38.71
2023-10-20T15:16:37.379Z,39.85
2023-10-20T15:21:41.516Z,42.30
2023-10-20T15:26:47.096Z,45.48
2023-10-20T15:31:54.220Z,46.25
2023-10-20T15:37:00.682Z,47.44
2023-10-20T15:42:05.062Z,46.61
2023-10-20T15:47:10.699Z,48.61
2023-10-20T15:52:14.830Z,48.64
2023-10-20T15:57:19.794Z,49.60
2023-10-20T16:02:25.843Z,51.32
2023-10-20T16:07:30.429Z,53.93
2023-10-20T16:12:34.977Z,55.61
2023-10-20T16:17:41.016Z,55.57
2023-10-20T16:22:46.848Z,56.21
2023-10-20T16:27:51.017Z,55.74
2023-10-20T16:32:56.473Z,56.95
2023-10-20T16:38:00.602Z,57.05
2023-10-20T16:43:05.886Z,58.05
2023-10-20T16:48:11.954Z,58.27
2023-10-20T16:53:19.815Z,57.56
2023-10-20T16:58:23.822Z,56.76
2023-10-20T17:03:29.462Z,56.59
2023-10-20T17:08:33.942Z,56.87
2023-10-20T17:13:37.946Z,57.92
2023-10-20T17:18:43.362Z,59.04
2023-10-20T17:23:49.352Z,59.74
2023-10-20T17:28:53.323Z,60.84
2023-10-20T17:33:59.026Z,59.85
2023-10-20T17:39:03.662Z,60.48
2023-10-20T17:44:09.734Z,60.92
2023-10-20T17:49:15.534Z,60.47
2023-10-20T17:54:19.740Z,61.04
2023-10-20T17:59:23.988Z,60.18
2023-10-20T18:04:31.678Z,60.52
2023-10-20T18:09:35.814Z,60.98
2023-10-20T18:14:40.493Z,61.24
2023-10-20T18:19:45.745Z,60.84
2023-10-20T18:24:53.063Z,59.96
2023-10-20T18:29:58.298Z,60.65
2023-10-20T18:35:06.681Z,61.70
2023-10-20T18:40:11.329Z,61.83
2023-10-20T18:45:15.433Z,62.06
2023-10-20T18:50:23.449Z,62.18
2023-10-20T18:55:28.528Z,61.72
2023-10-20T19:00:32.858Z,62.54
2023-10-20T19:05:39.702Z,62.35
2023-10-20T19:10:43.790Z,62.75
2023-10-20T19:15:48.219Z,61.30
2023-10-20T19:20:59.429Z,63.30
2023-10-20T19:26:09.091Z,64.28
2023-10-20T19:31:13.507Z,64.49
2023-10-20T19:36:18.823Z,65.23
2023-10-20T19:41:23.089Z,65.06
2023-10-20T19:46:26.994Z,65.15
2023-10-20T19:51:32.285Z,63.30
2023-10-20T19:56:37.662Z,64.83
2023-10-20T20:01:42.840Z,63.97
2023-10-20T20:06:48.288Z,63.24
2023-10-20T20:11:52.340Z,63.13
2023-10-20T20:16:57.238Z,63.92
2023-10-20T20:22:02.646Z,65.17
2023-10-20T20:27:06.774Z,65.50
2023-10-20T20:32:10.891Z,65.27
2023-10-20T20:37:16.163Z,65.39
2023-10-20T20:42:20.176Z,65.67
2023-10-20T20:47:24.147Z,64.35
2023-10-20T20:52:29.412Z,66.21
2023-10-20T20:57:34.856Z,68.20
2023-10-20T21:02:40.484Z,67.85
2023-10-20T21:07:46.715Z,68.34
2023-10-20T21:12:50.618Z,66.92
2023-10-20T21:17:55.093Z,66.76
2023-10-20T21:23:00.880Z,67.32
2023-10-20T21:28:05.435Z,66.96
2023-10-20T21:33:09.570Z,67.75
2023-10-20T21:38:15.020Z,67.05
2023-10-20T21:43:19.035Z,67.99
2023-10-20T21:48:23.005Z,69.04
2023-10-20T21:53:34.917Z,70.53
2023-10-20T21:58:40.164Z,70.91
2023-10-20T22:03:46.215Z,70.67
2023-10-20T22:08:52.849Z,69.86
2023-10-20T22:13:56.815Z,68.42
2023-10-20T22:19:00.667Z,69.08
2023-10-20T22:24:07.285Z,68.82
2023-10-20T22:29:12.322Z,68.30
2023-10-20T22:34:16.338Z,69.11
2023-10-20T22:39:24.021Z,70.03
2023-10-20T22:44:27.939Z,70.12
2023-10-20T22:49:32.030Z,70.16
2023-10-20T22:54:39.309Z,69.42
2023-10-20T22:59:43.285Z,72.36
2023-10-20T23:04:47.589Z,71.46
2023-10-20T23:09:53.122Z,72.82
2023-10-20T23:14:57.155Z,73.26
2023-10-20T23:20:01.103Z,71.91
2023-10-20T23:25:07.315Z,72.48
2023-10-20T23:30:13.091Z,72.15
2023-10-20T23:35:17.251Z,71.61
2023-10-20T23:40:23.102Z,71.59
2023-10-20T23:45:27.163Z,71.66
2023-10-20T23:50:31.044Z,70.81
2023-10-20T23:55:36.562Z,72.32
